Great Hebei — VRFU6 — position and weather

sailwx.info

Track history (hours):
 
Tides and Currents Weather Stations Pressure Air Temp Water Temp Dewpoint Dewpoint Depression Visibility Wind Speed Wind Dir Waves Ship Positions

Great Hebei

Last reported at 2015-Aug-07 18:27 UTC. Time now 2015-Aug-30 18:10 UTC.
Position S 18°30' E 118°06'.
Warning: this ship's position is 22 days out of date.

Length 295 m; draft 8.4 m.

Type: Cargo ship. MMSI: 477617100.

Date/timePositionNaut miles runAvg speedWind from/ knotsBaromVisibWave heightAir tempDewpointWater temp
2015-Aug-07 18:27S 18°30' E 118°06'9 9.7
2015-Aug-07 17:33S 18°39' E 118°08'31 9.6
2015-Aug-07 14:16S 19°09' E 118°16'810.1
2015-Aug-07 13:29S 19°17' E 118°18'1010.2
2015-Aug-07 12:31S 19°27' E 118°20'1010.6
2015-Aug-07 11:33S 19°36' E 118°23'1110.6
2015-Aug-07 10:33S 19°47' E 118°25'1010.3
2015-Aug-07 09:33S 19°57' E 118°28'1010.2
2015-Aug-07 08:32S 20°07' E 118°29'9 9.1
2015-Aug-07 07:30S 20°15' E 118°34'5 4.9
2015-Aug-07 06:33S 20°19' E 118°35'0 0.0
2015-Aug-06 19:24S 20°20' E 118°35'0 0.0
2015-Aug-06 18:30S 20°20' E 118°35'0 0.0
2015-Aug-06 15:06S 20°20' E 118°35'0 0.0
2015-Aug-06 13:12S 20°20' E 118°35'0 0.0
2015-Aug-06 11:12S 20°20' E 118°35'0 0.0
2015-Aug-06 09:30S 20°20' E 118°35'14 0.8
2015-Aug-05 16:13S 20°07' E 118°31'0 0.0
2015-Aug-05 12:31S 20°07' E 118°31'0 0.1
2015-Aug-05 10:13S 20°06' E 118°30'  
2015-Aug-02 14:31S 20°07' E 118°31'0 0.0
2015-Aug-01 15:32S 20°07' E 118°31'4 3.4
2015-Aug-01 14:29S 20°04' E 118°33'2410.1
2015-Aug-01 12:05S 19°41' E 118°24'1011.0
2015-Aug-01 11:12S 19°31' E 118°22'1010.6
2015-Aug-01 10:17S 19°22' E 118°19'810.2
2015-Aug-01 09:32S 19°15' E 118°16'  
Track history (hours):
 
Tides and Currents Weather Stations Pressure Air Temp Water Temp Dewpoint Dewpoint Depression Visibility Wind Speed Wind Dir Waves Ship Positions

Great Hebei

Last reported at 2015-Aug-07 18:27 UTC. Time now 2015-Aug-30 18:10 UTC.
Position S 18°30' E 118°06'.
Warning: this ship's position is 22 days out of date.

Length 295 m; draft 8.4 m.

Type: Cargo ship. MMSI: 477617100.

Date/timePositionNaut miles runAvg speedWind from/ knotsBaromVisibWave heightAir tempDewpointWater temp
2015-Aug-07 18:27S 18°30' E 118°06'9 9.7
2015-Aug-07 17:33S 18°39' E 118°08'31 9.6
2015-Aug-07 14:16S 19°09' E 118°16'810.1
2015-Aug-07 13:29S 19°17' E 118°18'1010.2
2015-Aug-07 12:31S 19°27' E 118°20'1010.6
2015-Aug-07 11:33S 19°36' E 118°23'1110.6
2015-Aug-07 10:33S 19°47' E 118°25'1010.3
2015-Aug-07 09:33S 19°57' E 118°28'1010.2
2015-Aug-07 08:32S 20°07' E 118°29'9 9.1
2015-Aug-07 07:30S 20°15' E 118°34'5 4.9
2015-Aug-07 06:33S 20°19' E 118°35'0 0.0
2015-Aug-06 19:24S 20°20' E 118°35'0 0.0
2015-Aug-06 18:30S 20°20' E 118°35'0 0.0
2015-Aug-06 15:06S 20°20' E 118°35'0 0.0
2015-Aug-06 13:12S 20°20' E 118°35'0 0.0
2015-Aug-06 11:12S 20°20' E 118°35'0 0.0
2015-Aug-06 09:30S 20°20' E 118°35'14 0.8
2015-Aug-05 16:13S 20°07' E 118°31'0 0.0
2015-Aug-05 12:31S 20°07' E 118°31'0 0.1
2015-Aug-05 10:13S 20°06' E 118°30'  
2015-Aug-02 14:31S 20°07' E 118°31'0 0.0
2015-Aug-01 15:32S 20°07' E 118°31'4 3.4
2015-Aug-01 14:29S 20°04' E 118°33'2410.1
2015-Aug-01 12:05S 19°41' E 118°24'1011.0
2015-Aug-01 11:12S 19°31' E 118°22'1010.6
2015-Aug-01 10:17S 19°22' E 118°19'810.2
2015-Aug-01 09:32S 19°15' E 118°16'  

Dump ship's entire track history